Time;durP1;ratioP1;P1;durP2;ratioP2;P2;SDS_P1;SDS_P2;PMS_P1;PMS_P2;Temp;Humidity;BMP_temperature;BMP_pressure;BME280_temperature;BME280_humidity;BME280_pressure;Samples;Min_cycle;Max_cycle;Signal;HPM_P1;HPM_P2
2023/03/03 00:00:21;;;;;;;1.17;1.08;;;;;;;;;;1034064;28;20022;-28
2023/03/03 00:00:52;;;;;;;1.98;1.65;;;;;;;;;;1033743;28;20151;-27
2023/03/03 00:01:25;;;;;;;3.70;1.30;;;;;;;;;;1033402;28;20032;-28
2023/03/03 00:01:56;;;;;;;2.22;1.45;;;;;;;;;;1032626;28;20470;-27
2023/03/03 00:02:26;;;;;;;2.63;1.55;;;;;;;;;;1033806;28;20026;-27
2023/03/03 00:03:00;;;;;;;3.72;1.33;;;;;;;;;;1033515;28;20041;-28
2023/03/03 00:03:31;;;;;;;1.90;1.20;;;;;;;;;;1033330;28;20026;-27
2023/03/03 00:04:01;;;;;;;10.50;1.90;;;;;;;;;;1033495;28;20424;-28
2023/03/03 00:04:32;;;;;;;1.15;1.05;;;;;;;;;;1034163;28;20026;-27
2023/03/03 00:05:03;;;;;;;3.42;2.28;;;;;;;;;;1033580;28;20100;-27
2023/03/03 00:05:33;;;;;;;4.82;2.35;;;;;;;;;;1033461;28;20102;-27
2023/03/03 00:06:04;;;;;;;3.35;1.88;;;;;;;;;;1033380;28;20037;-28
2023/03/03 00:06:35;;;;;;;3.38;1.30;;;;;;;;;;1033345;28;20022;-27
2023/03/03 00:07:05;;;;;;;3.45;2.75;;;;;;;;;;1033347;28;20033;-27
2023/03/03 00:07:36;;;;;;;6.30;1.60;;;;;;;;;;1033382;28;20022;-27
2023/03/03 00:08:06;;;;;;;2.88;1.75;;;;;;;;;;1034448;28;20025;-27
2023/03/03 00:08:37;;;;;;;1.95;1.30;;;;;;;;;;1033177;28;20034;-27
2023/03/03 00:09:07;;;;;;;3.85;0.82;;;;;;;;;;1033527;28;20034;-27
2023/03/03 00:09:38;;;;;;;3.75;1.75;;;;;;;;;;1033723;28;20040;-27
2023/03/03 00:10:09;;;;;;;1.52;1.42;;;;;;;;;;1034249;28;20026;-27
2023/03/03 00:10:39;;;;;;;4.30;1.65;;;;;;;;;;1034246;28;20062;-27
2023/03/03 00:11:10;;;;;;;2.92;1.08;;;;;;;;;;1034226;28;20478;-28
2023/03/03 00:11:40;;;;;;;4.68;2.08;;;;;;;;;;1034182;28;20023;-27
2023/03/03 00:12:21;;;;;;;3.60;2.08;;;;;;;;;;1034360;28;20988;-27
2023/03/03 00:12:52;;;;;;;3.70;1.77;;;;;;;;;;1034419;28;20030;-28
2023/03/03 00:13:24;;;;;;;7.88;2.08;;;;;;;;;;1034161;28;20462;-27
2023/03/03 00:13:55;;;;;;;2.38;1.45;;;;;;;;;;1034410;28;20027;-27
2023/03/03 00:14:31;;;;;;;2.17;0.98;;;;;;;;;;1034314;28;20022;-28
2023/03/03 00:15:01;;;;;;;4.10;1.65;;;;;;;;;;1034190;28;20557;-27
2023/03/03 00:15:32;;;;;;;1.38;0.90;;;;;;;;;;1034300;28;20165;-27
2023/03/03 00:16:14;;;;;;;3.30;0.80;;;;;;;;;;1034293;28;20471;-27
2023/03/03 00:16:47;;;;;;;4.53;2.00;;;;;;;;;;1034107;28;20061;-28
2023/03/03 00:17:23;;;;;;;5.05;2.15;;;;;;;;;;1034236;28;20490;-27
2023/03/03 00:17:53;;;;;;;6.10;2.00;;;;;;;;;;1034286;28;20105;-27
2023/03/03 00:18:27;;;;;;;17.27;2.58;;;;;;;;;;1034157;28;20084;-27
2023/03/03 00:18:58;;;;;;;2.65;0.85;;;;;;;;;;1032469;28;20400;-27
2023/03/03 00:19:36;;;;;;;2.40;1.80;;;;;;;;;;1033869;28;20506;-27
2023/03/03 00:20:25;;;;;;;2.28;2.10;;;;;;;;;;1033952;28;20066;-27
2023/03/03 00:20:57;;;;;;;2.15;1.02;;;;;;;;;;1033996;28;20073;-27
2023/03/03 00:21:40;;;;;;;3.58;1.45;;;;;;;;;;1034213;28;20026;-27
2023/03/03 00:22:15;;;;;;;5.70;1.88;;;;;;;;;;1034204;28;20018;-27
2023/03/03 00:22:45;;;;;;;4.40;2.28;;;;;;;;;;1034768;28;20029;-26
2023/03/03 00:23:19;;;;;;;3.78;1.05;;;;;;;;;;1034229;28;20084;-27
2023/03/03 00:23:50;;;;;;;2.78;1.60;;;;;;;;;;1034171;28;20030;-27
2023/03/03 00:24:20;;;;;;;2.20;1.08;;;;;;;;;;1034031;28;20026;-27
2023/03/03 00:24:51;;;;;;;2.40;1.90;;;;;;;;;;1034317;28;20391;-27
2023/03/03 00:25:22;;;;;;;2.72;1.25;;;;;;;;;;1033999;28;20029;-28
2023/03/03 00:25:53;;;;;;;18.50;2.88;;;;;;;;;;1034297;28;20402;-28
2023/03/03 00:26:32;;;;;;;1.67;1.58;;;;;;;;;;1034238;28;20169;-27
2023/03/03 00:27:15;;;;;;;2.95;1.55;;;;;;;;;;1033620;28;20030;-28
2023/03/03 00:27:46;;;;;;;4.38;3.15;;;;;;;;;;1034068;28;20086;-27
2023/03/03 00:28:39;;;;;;;9.57;2.65;;;;;;;;;;1034341;28;20078;-27
2023/03/03 00:29:29;;;;;;;4.82;3.13;;;;;;;;;;1027486;28;20065;-27
2023/03/03 00:30:00;;;;;;;6.70;3.17;;;;;;;;;;1034168;28;20026;-27
2023/03/03 00:30:30;;;;;;;1.58;1.10;;;;;;;;;;1034173;28;20030;-27
2023/03/03 00:31:05;;;;;;;1.65;1.52;;;;;;;;;;1034400;28;20460;-28
2023/03/03 00:31:36;;;;;;;6.72;3.22;;;;;;;;;;1034118;28;20034;-28
2023/03/03 00:32:06;;;;;;;1.95;1.65;;;;;;;;;;1034281;28;20029;-27
2023/03/03 00:32:37;;;;;;;1.83;1.13;;;;;;;;;;1034441;28;20030;-27
2023/03/03 00:33:28;;;;;;;5.68;1.15;;;;;;;;;;1034236;28;20022;-27
2023/03/03 00:34:01;;;;;;;6.00;2.38;;;;;;;;;;1033170;28;20038;-27
2023/03/03 00:34:33;;;;;;;3.92;0.93;;;;;;;;;;1034277;28;20496;-27
2023/03/03 00:35:23;;;;;;;6.78;1.00;;;;;;;;;;1034324;28;20022;-27
2023/03/03 00:35:54;;;;;;;3.63;1.27;;;;;;;;;;1034143;28;20030;-28
2023/03/03 00:36:35;;;;;;;4.68;1.65;;;;;;;;;;1035193;28;20485;-27
2023/03/03 00:37:19;;;;;;;2.08;1.35;;;;;;;;;;1034185;28;20072;-28
2023/03/03 00:37:53;;;;;;;2.13;1.30;;;;;;;;;;1034652;28;20452;-28
2023/03/03 00:38:24;;;;;;;4.53;2.35;;;;;;;;;;1034135;28;20029;-27
2023/03/03 00:38:55;;;;;;;1.90;1.20;;;;;;;;;;1034188;28;20025;-27
2023/03/03 00:39:28;;;;;;;4.20;1.70;;;;;;;;;;1034075;28;20120;-28
2023/03/03 00:40:05;;;;;;;3.38;1.88;;;;;;;;;;1034157;28;20112;-27
2023/03/03 00:40:37;;;;;;;4.03;1.58;;;;;;;;;;1033998;28;20019;-27
2023/03/03 00:41:18;;;;;;;3.78;2.05;;;;;;;;;;1034100;28;20382;-27
2023/03/03 00:41:48;;;;;;;5.22;1.70;;;;;;;;;;1034052;28;20026;-27
2023/03/03 00:42:19;;;;;;;3.40;2.08;;;;;;;;;;1034033;28;20033;-27
2023/03/03 00:42:51;;;;;;;6.45;2.78;;;;;;;;;;1034174;28;20486;-27
2023/03/03 00:43:23;;;;;;;6.70;2.53;;;;;;;;;;1033977;28;20695;-27
2023/03/03 00:43:54;;;;;;;9.50;3.83;;;;;;;;;;1034041;28;20034;-27
2023/03/03 00:44:44;;;;;;;4.13;1.80;;;;;;;;;;1033892;28;20029;-26
2023/03/03 00:45:22;;;;;;;6.75;2.97;;;;;;;;;;1034249;28;20396;-28
2023/03/03 00:45:57;;;;;;;10.80;3.17;;;;;;;;;;1032657;28;20521;-26
2023/03/03 00:46:29;;;;;;;9.90;1.73;;;;;;;;;;1034017;28;20030;-27
2023/03/03 00:47:05;;;;;;;5.88;2.30;;;;;;;;;;1033965;28;20053;-27
2023/03/03 00:47:37;;;;;;;6.40;2.42;;;;;;;;;;1030847;28;20022;-27
2023/03/03 00:48:26;;;;;;;17.83;3.00;;;;;;;;;;1030906;28;20150;-27
2023/03/03 00:48:56;;;;;;;6.07;2.00;;;;;;;;;;1030733;28;20452;-27
2023/03/03 00:49:27;;;;;;;5.88;2.42;;;;;;;;;;1033135;28;20117;-28
2023/03/03 00:50:06;;;;;;;2.08;0.85;;;;;;;;;;1033837;28;20110;-27
2023/03/03 00:50:39;;;;;;;3.53;1.45;;;;;;;;;;1034127;28;20079;-27
2023/03/03 00:51:21;;;;;;;2.90;2.05;;;;;;;;;;1034664;28;20061;-27
2023/03/03 00:51:52;;;;;;;4.68;1.38;;;;;;;;;;1033945;28;20046;-27
2023/03/03 00:52:26;;;;;;;1.85;1.27;;;;;;;;;;1034143;28;20038;-27
2023/03/03 00:53:04;;;;;;;6.70;1.95;;;;;;;;;;1034106;28;20485;-28
2023/03/03 00:53:35;;;;;;;2.53;1.42;;;;;;;;;;1033244;28;20022;-27
2023/03/03 00:54:05;;;;;;;2.25;2.00;;;;;;;;;;1034008;28;20469;-27
2023/03/03 00:54:36;;;;;;;5.03;1.88;;;;;;;;;;1033878;28;20536;-27
2023/03/03 00:55:07;;;;;;;6.00;3.25;;;;;;;;;;1034619;28;20022;-27
2023/03/03 00:55:38;;;;;;;2.30;2.00;;;;;;;;;;1034125;28;20133;-27
2023/03/03 00:56:09;;;;;;;2.83;1.70;;;;;;;;;;1033900;28;20489;-29
2023/03/03 00:56:40;;;;;;;13.93;1.98;;;;;;;;;;1033595;28;20113;-29
2023/03/03 00:57:13;;;;;;;6.88;4.78;;;;;;;;;;1034280;28;20414;-29
2023/03/03 00:57:44;;;;;;;4.35;1.17;;;;;;;;;;1034053;28;20030;-29
2023/03/03 00:58:14;;;;;;;3.90;1.95;;;;;;;;;;1033436;28;20018;-29
2023/03/03 00:58:46;;;;;;;7.70;1.90;;;;;;;;;;1033025;28;20041;-29
2023/03/03 00:59:17;;;;;;;5.88;2.17;;;;;;;;;;1034174;28;20088;-29
2023/03/03 00:59:47;;;;;;;2.00;1.77;;;;;;;;;;1034307;28;20608;-29
2023/03/03 01:00:18;;;;;;;3.08;2.10;;;;;;;;;;1033840;28;20018;-29
2023/03/03 01:00:49;;;;;;;3.83;2.40;;;;;;;;;;1034021;28;20034;-29
2023/03/03 01:01:20;;;;;;;5.32;2.83;;;;;;;;;;1034017;28;20050;-29
2023/03/03 01:01:51;;;;;;;3.85;1.08;;;;;;;;;;1034038;28;20486;-29
2023/03/03 01:02:22;;;;;;;2.30;1.75;;;;;;;;;;1033925;28;20026;-29
2023/03/03 01:02:52;;;;;;;14.25;2.05;;;;;;;;;;1034121;28;20568;-29
2023/03/03 01:03:24;;;;;;;9.52;3.35;;;;;;;;;;1033982;28;20470;-29
2023/03/03 01:03:55;;;;;;;11.63;3.92;;;;;;;;;;1033890;28;20147;-29
2023/03/03 01:04:25;;;;;;;14.73;4.38;;;;;;;;;;1034025;28;20604;-29
2023/03/03 01:04:56;;;;;;;23.27;8.25;;;;;;;;;;1033729;28;20466;-29
2023/03/03 01:05:26;;;;;;;17.13;8.98;;;;;;;;;;1033839;28;20030;-29
2023/03/03 01:05:57;;;;;;;19.67;8.50;;;;;;;;;;1034510;28;20124;-29
2023/03/03 01:06:27;;;;;;;25.52;9.65;;;;;;;;;;1033869;28;20022;-29
2023/03/03 01:06:58;;;;;;;25.80;9.35;;;;;;;;;;1033093;28;20030;-29
2023/03/03 01:07:28;;;;;;;16.48;8.65;;;;;;;;;;1032935;28;20140;-28
2023/03/03 01:07:59;;;;;;;15.25;6.72;;;;;;;;;;1033353;28;20028;-29
2023/03/03 01:08:30;;;;;;;17.30;9.00;;;;;;;;;;1034221;28;20107;-28
2023/03/03 01:09:00;;;;;;;25.13;9.43;;;;;;;;;;1033799;28;20394;-28
2023/03/03 01:09:31;;;;;;;27.52;9.43;;;;;;;;;;1034811;28;20053;-29
2023/03/03 01:10:01;;;;;;;15.05;7.65;;;;;;;;;;1034406;28;20033;-29
2023/03/03 01:10:34;;;;;;;20.10;7.90;;;;;;;;;;1034662;28;20025;-29
2023/03/03 01:11:15;;;;;;;27.55;9.30;;;;;;;;;;1033917;28;20033;-29
2023/03/03 01:11:45;;;;;;;;;;;;;;;;;;1034968;28;20026;-29
2023/03/03 01:12:15;;;;;;;19.52;10.38;;;;;;;;;;1032708;28;19941;-29
2023/03/03 01:12:46;;;;;;;13.05;7.82;;;;;;;;;;1032604;28;20022;-28
2023/03/03 01:13:18;;;;;;;21.80;9.52;;;;;;;;;;1033856;28;20394;-30
2023/03/03 01:13:49;;;;;;;19.25;7.97;;;;;;;;;;1033039;28;20026;-29
2023/03/03 01:14:19;;;;;;;20.52;9.48;;;;;;;;;;1030317;28;20106;-29
2023/03/03 01:14:51;;;;;;;21.92;10.45;;;;;;;;;;1032782;28;20026;-29
2023/03/03 01:15:22;;;;;;;17.50;9.30;;;;;;;;;;1033221;28;20029;-30
2023/03/03 01:15:53;;;;;;;23.13;9.85;;;;;;;;;;1033698;28;20125;-29
2023/03/03 01:16:23;;;;;;;17.02;8.50;;;;;;;;;;1033775;28;20034;-29
2023/03/03 01:16:54;;;;;;;22.00;8.43;;;;;;;;;;1033864;28;20047;-29
2023/03/03 01:17:24;;;;;;;12.40;6.30;;;;;;;;;;1032779;28;20494;-29
2023/03/03 01:17:55;;;;;;;16.55;6.22;;;;;;;;;;1028673;28;20019;-29
2023/03/03 01:18:26;;;;;;;13.88;7.03;;;;;;;;;;1029988;28;20393;-28
2023/03/03 01:18:57;;;;;;;11.15;5.35;;;;;;;;;;1033189;28;20065;-28
2023/03/03 01:19:27;;;;;;;7.78;4.63;;;;;;;;;;1033986;28;20081;-29
2023/03/03 01:19:58;;;;;;;8.90;3.42;;;;;;;;;;1033921;28;20025;-29
2023/03/03 01:20:29;;;;;;;10.93;4.55;;;;;;;;;;1031351;28;20033;-29
2023/03/03 01:21:00;;;;;;;6.80;3.28;;;;;;;;;;1032075;28;20030;-29
2023/03/03 01:21:31;;;;;;;6.75;3.17;;;;;;;;;;1032026;28;20037;-29
2023/03/03 01:22:01;;;;;;;6.43;3.88;;;;;;;;;;1032694;28;20033;-29
2023/03/03 01:22:32;;;;;;;9.27;4.32;;;;;;;;;;1033135;28;20113;-29
2023/03/03 01:23:03;;;;;;;7.68;3.17;;;;;;;;;;1031401;28;20038;-29
2023/03/03 01:23:33;;;;;;;9.82;3.47;;;;;;;;;;1032054;28;20041;-29
2023/03/03 01:24:04;;;;;;;7.90;3.33;;;;;;;;;;1031789;28;20030;-28
2023/03/03 01:24:34;;;;;;;5.30;2.45;;;;;;;;;;1032414;28;20036;-29
2023/03/03 01:25:06;;;;;;;32.47;4.95;;;;;;;;;;1033240;28;20387;-29
2023/03/03 01:25:36;;;;;;;5.28;2.80;;;;;;;;;;1033856;28;20053;-29
2023/03/03 01:26:07;;;;;;;5.05;2.75;;;;;;;;;;1032802;28;20030;-30
2023/03/03 01:26:37;;;;;;;4.78;2.72;;;;;;;;;;1032454;28;20034;-29
2023/03/03 01:27:08;;;;;;;26.35;3.88;;;;;;;;;;1032690;28;20390;-28
2023/03/03 01:27:39;;;;;;;4.18;2.10;;;;;;;;;;1031779;28;20474;-29
2023/03/03 01:28:10;;;;;;;17.58;3.42;;;;;;;;;;1032497;28;20026;-29
2023/03/03 01:28:41;;;;;;;8.05;3.00;;;;;;;;;;1033258;28;20030;-29
2023/03/03 01:29:13;;;;;;;29.50;11.55;;;;;;;;;;1032833;28;20065;-29
2023/03/03 01:29:43;;;;;;;35.15;11.38;;;;;;;;;;1032316;28;20088;-29
2023/03/03 01:30:14;;;;;;;17.40;7.22;;;;;;;;;;1031897;28;20588;-29
2023/03/03 01:30:45;;;;;;;40.80;12.45;;;;;;;;;;1032002;28;20031;-30
2023/03/03 01:31:15;;;;;;;37.45;12.77;;;;;;;;;;1031439;28;20120;-29
2023/03/03 01:31:47;;;;;;;22.75;10.50;;;;;;;;;;1032131;28;20030;-29
2023/03/03 01:32:18;;;;;;;24.70;10.05;;;;;;;;;;1032873;28;20436;-29
2023/03/03 01:32:48;;;;;;;19.08;7.00;;;;;;;;;;1032448;28;20057;-29
2023/03/03 01:33:19;;;;;;;19.90;4.90;;;;;;;;;;1032454;28;20033;-29
2023/03/03 01:33:50;;;;;;;12.95;5.93;;;;;;;;;;1033131;28;20026;-29
2023/03/03 01:34:20;;;;;;;22.55;4.50;;;;;;;;;;1032629;28;20036;-29
2023/03/03 01:34:51;;;;;;;8.73;3.45;;;;;;;;;;1032630;28;20034;-29
2023/03/03 01:35:22;;;;;;;7.15;3.47;;;;;;;;;;1034258;28;21411;-29
2023/03/03 01:35:53;;;;;;;16.92;4.60;;;;;;;;;;1034158;28;20117;-29
2023/03/03 01:36:24;;;;;;;10.73;4.75;;;;;;;;;;1034275;28;20026;-30
2023/03/03 01:36:55;;;;;;;39.42;5.78;;;;;;;;;;1031850;28;20117;-30
2023/03/03 01:37:26;;;;;;;8.85;3.08;;;;;;;;;;1033995;28;20026;-30
2023/03/03 01:37:57;;;;;;;4.45;1.65;;;;;;;;;;1034109;28;20059;-29
2023/03/03 01:38:28;;;;;;;8.63;3.65;;;;;;;;;;1034172;28;20022;-30
2023/03/03 01:38:58;;;;;;;9.50;3.03;;;;;;;;;;1033865;28;20437;-29
2023/03/03 01:39:29;;;;;;;3.25;2.40;;;;;;;;;;1033486;28;20141;-30
2023/03/03 01:39:59;;;;;;;5.95;2.50;;;;;;;;;;1032546;28;20034;-30
2023/03/03 01:40:30;;;;;;;5.30;2.67;;;;;;;;;;1032539;28;20053;-30
2023/03/03 01:41:01;;;;;;;6.72;3.42;;;;;;;;;;1033156;28;20038;-30
2023/03/03 01:41:32;;;;;;;10.98;4.38;;;;;;;;;;1032419;28;20061;-30
2023/03/03 01:42:03;;;;;;;6.50;3.40;;;;;;;;;;1032581;28;20029;-30
2023/03/03 01:42:33;;;;;;;8.68;2.95;;;;;;;;;;1033782;28;20112;-30
2023/03/03 01:43:05;;;;;;;8.65;3.20;;;;;;;;;;1032778;28;20034;-30
2023/03/03 01:43:43;;;;;;;15.30;2.72;;;;;;;;;;1034114;28;20473;-29
2023/03/03 01:44:14;;;;;;;14.30;3.05;;;;;;;;;;1032740;28;20459;-29
2023/03/03 01:44:45;;;;;;;7.18;3.78;;;;;;;;;;1028874;28;20049;-30
2023/03/03 01:45:15;;;;;;;6.97;4.97;;;;;;;;;;1028231;28;20069;-28
2023/03/03 01:45:46;;;;;;;16.27;3.35;;;;;;;;;;1028272;28;20149;-27
2023/03/03 01:46:19;;;;;;;7.22;4.32;;;;;;;;;;1027781;28;20019;-27
2023/03/03 01:47:09;;;;;;;7.90;4.00;;;;;;;;;;1032790;28;20030;-27
2023/03/03 01:47:41;;;;;;;14.40;5.03;;;;;;;;;;1033139;28;20026;-27
2023/03/03 01:48:17;;;;;;;18.17;2.97;;;;;;;;;;1032393;28;20034;-27
2023/03/03 01:48:48;;;;;;;13.98;4.38;;;;;;;;;;1032484;28;20062;-27
2023/03/03 01:49:25;;;;;;;6.45;4.40;;;;;;;;;;1032525;28;20026;-28
2023/03/03 01:49:59;;;;;;;11.23;5.82;;;;;;;;;;1032617;28;20384;-27
2023/03/03 01:50:49;;;;;;;11.90;4.28;;;;;;;;;;1033081;28;20030;-29
2023/03/03 01:51:22;;;;;;;17.58;4.53;;;;;;;;;;1031889;28;20026;-29
2023/03/03 01:51:57;;;;;;;12.95;3.63;;;;;;;;;;1034195;28;20462;-30
2023/03/03 01:52:32;;;;;;;12.77;5.55;;;;;;;;;;1030983;28;20521;-30
2023/03/03 01:53:04;;;;;;;18.98;5.57;;;;;;;;;;1031519;28;20391;-30
2023/03/03 01:53:45;;;;;;;17.35;4.30;;;;;;;;;;1031167;28;20034;-30
2023/03/03 01:54:22;;;;;;;21.15;3.38;;;;;;;;;;1033465;28;20517;-29
2023/03/03 01:54:56;;;;;;;14.48;5.65;;;;;;;;;;1031948;28;20119;-29
2023/03/03 01:55:32;;;;;;;11.65;4.18;;;;;;;;;;1032964;28;20088;-30
2023/03/03 01:56:06;;;;;;;27.35;6.53;;;;;;;;;;1032551;28;20393;-30
2023/03/03 01:56:37;;;;;;;12.18;6.68;;;;;;;;;;1031414;28;20116;-27
2023/03/03 01:57:11;;;;;;;21.15;7.63;;;;;;;;;;1032210;28;20085;-26
2023/03/03 01:57:44;;;;;;;28.67;7.85;;;;;;;;;;1033026;28;20026;-27
2023/03/03 01:58:29;;;;;;;15.43;6.30;;;;;;;;;;1032660;28;20117;-27
2023/03/03 01:59:03;;;;;;;24.92;7.10;;;;;;;;;;1034283;28;20030;-27
2023/03/03 01:59:36;;;;;;;55.88;8.88;;;;;;;;;;1033311;28;20037;-27
2023/03/03 02:00:07;;;;;;;18.15;6.07;;;;;;;;;;1030960;28;20029;-28
2023/03/03 02:00:40;;;;;;;17.55;8.13;;;;;;;;;;1030828;28;20045;-28
2023/03/03 02:01:13;;;;;;;37.50;8.27;;;;;;;;;;1030179;28;20060;-27
2023/03/03 02:01:44;;;;;;;10.07;4.60;;;;;;;;;;1030758;28;20026;-27
2023/03/03 02:02:15;;;;;;;33.85;9.38;;;;;;;;;;1033383;28;20034;-30
2023/03/03 02:02:46;;;;;;;47.30;8.52;;;;;;;;;;1032903;28;20026;-29
2023/03/03 02:03:17;;;;;;;16.75;4.93;;;;;;;;;;1034257;28;20064;-30
2023/03/03 02:03:48;;;;;;;28.08;7.00;;;;;;;;;;1032594;28;20040;-30
2023/03/03 02:04:20;;;;;;;18.27;7.35;;;;;;;;;;1033145;28;20052;-29
2023/03/03 02:04:51;;;;;;;28.98;6.63;;;;;;;;;;1033245;28;20044;-30
2023/03/03 02:05:22;;;;;;;11.00;6.45;;;;;;;;;;1031991;28;20088;-29
2023/03/03 02:05:55;;;;;;;10.48;5.97;;;;;;;;;;1032411;28;20026;-30
2023/03/03 02:06:27;;;;;;;21.65;5.15;;;;;;;;;;1031985;28;20023;-30
2023/03/03 02:07:00;;;;;;;22.88;6.15;;;;;;;;;;1033697;28;20069;-27
2023/03/03 02:07:31;;;;;;;21.13;8.45;;;;;;;;;;1031642;28;20014;-29
2023/03/03 02:08:02;;;;;;;21.35;7.97;;;;;;;;;;1031988;28;20037;-28
2023/03/03 02:08:38;;;;;;;42.08;9.40;;;;;;;;;;1033727;28;20089;-30
2023/03/03 02:09:08;;;;;;;14.25;7.85;;;;;;;;;;1032313;28;20022;-30
2023/03/03 02:09:39;;;;;;;20.08;6.13;;;;;;;;;;1032705;28;20477;-30
2023/03/03 02:10:11;;;;;;;28.00;5.97;;;;;;;;;;1033121;28;20022;-30
2023/03/03 02:10:43;;;;;;;25.45;6.68;;;;;;;;;;1032584;28;20026;-30
2023/03/03 02:11:14;;;;;;;18.33;8.82;;;;;;;;;;1034236;28;20022;-29
2023/03/03 02:11:45;;;;;;;17.33;6.45;;;;;;;;;;1033954;28;20061;-29
2023/03/03 02:12:17;;;;;;;18.73;6.35;;;;;;;;;;1032858;28;20077;-29
2023/03/03 02:12:52;;;;;;;32.83;6.97;;;;;;;;;;1033224;28;20393;-29
2023/03/03 02:13:22;;;;;;;9.00;5.43;;;;;;;;;;1032505;28;20041;-29
2023/03/03 02:13:53;;;;;;;17.73;5.45;;;;;;;;;;1033289;28;20037;-30
2023/03/03 02:14:24;;;;;;;21.52;8.25;;;;;;;;;;1033628;28;20164;-28
2023/03/03 02:14:54;;;;;;;24.13;7.15;;;;;;;;;;1032488;28;20342;-29
2023/03/03 02:15:25;;;;;;;11.93;6.53;;;;;;;;;;1031944;28;20034;-30
2023/03/03 02:15:57;;;;;;;16.10;6.82;;;;;;;;;;1032739;28;20064;-29
2023/03/03 02:16:29;;;;;;;26.65;8.43;;;;;;;;;;1033016;28;20502;-29
2023/03/03 02:17:00;;;;;;;23.58;6.25;;;;;;;;;;1032114;28;20469;-29
2023/03/03 02:17:32;;;;;;;10.90;5.85;;;;;;;;;;1031378;28;20381;-30
2023/03/03 02:18:05;;;;;;;9.02;5.20;;;;;;;;;;1030512;28;20027;-29
2023/03/03 02:18:36;;;;;;;15.15;6.47;;;;;;;;;;1032449;28;20038;-30
2023/03/03 02:19:12;;;;;;;16.08;7.55;;;;;;;;;;1032134;28;20448;-30
2023/03/03 02:19:42;;;;;;;29.15;9.77;;;;;;;;;;1032895;28;20031;-29
2023/03/03 02:20:13;;;;;;;26.63;11.48;;;;;;;;;;1032670;28;20651;-27
2023/03/03 02:20:55;;;;;;;35.28;12.05;;;;;;;;;;1032110;28;20027;-30
2023/03/03 02:21:26;;;;;;;14.20;6.38;;;;;;;;;;1033401;28;20053;-30
2023/03/03 02:21:58;;;;;;;33.20;9.65;;;;;;;;;;1032881;28;20721;-30
2023/03/03 02:22:36;;;;;;;19.15;7.40;;;;;;;;;;1032252;28;20037;-30
2023/03/03 02:23:12;;;;;;;15.80;6.95;;;;;;;;;;1032562;28;20033;-30
2023/03/03 02:23:52;;;;;;;26.65;8.60;;;;;;;;;;1030124;28;20129;-30
2023/03/03 02:24:32;;;;;;;19.00;7.93;;;;;;;;;;1031094;28;20498;-30
2023/03/03 02:25:05;;;;;;;19.98;7.15;;;;;;;;;;1033315;28;20034;-30
2023/03/03 02:25:40;;;;;;;43.67;7.15;;;;;;;;;;1032061;28;20026;-30
2023/03/03 02:26:12;;;;;;;19.77;6.85;;;;;;;;;;1031712;28;20505;-29
2023/03/03 02:26:44;;;;;;;12.32;5.00;;;;;;;;;;1033530;28;20038;-30
2023/03/03 02:27:15;;;;;;;15.35;7.25;;;;;;;;;;1031453;28;20041;-30
2023/03/03 02:27:46;;;;;;;21.25;6.93;;;;;;;;;;1032181;28;20038;-30
2023/03/03 02:28:17;;;;;;;9.00;4.55;;;;;;;;;;1033738;28;20030;-29
2023/03/03 02:28:47;;;;;;;16.25;5.75;;;;;;;;;;1033188;28;20026;-30
2023/03/03 02:29:18;;;;;;;14.35;4.88;;;;;;;;;;1032749;28;20028;-30
2023/03/03 02:29:51;;;;;;;8.55;5.28;;;;;;;;;;1032930;28;20037;-30
2023/03/03 02:30:22;;;;;;;19.42;6.43;;;;;;;;;;1032595;28;20473;-29
2023/03/03 02:30:54;;;;;;;16.45;3.35;;;;;;;;;;1033040;28;20037;-29
2023/03/03 02:31:26;;;;;;;12.75;6.65;;;;;;;;;;1032002;28;20030;-30
2023/03/03 02:31:57;;;;;;;8.45;4.00;;;;;;;;;;1032707;28;20367;-30
2023/03/03 02:32:28;;;;;;;18.33;4.38;;;;;;;;;;1032671;28;20029;-30
2023/03/03 02:32:59;;;;;;;6.43;3.50;;;;;;;;;;1031767;28;20033;-29
2023/03/03 02:33:29;;;;;;;13.70;2.60;;;;;;;;;;1032472;28;20104;-30
2023/03/03 02:34:00;;;;;;;9.32;3.05;;;;;;;;;;1031902;28;20424;-30
2023/03/03 02:34:30;;;;;;;7.32;3.22;;;;;;;;;;1033018;28;20394;-30
2023/03/03 02:35:01;;;;;;;7.70;3.70;;;;;;;;;;1032034;28;20022;-30
2023/03/03 02:35:31;;;;;;;9.98;4.28;;;;;;;;;;1032744;28;20052;-30
2023/03/03 02:36:03;;;;;;;5.65;2.88;;;;;;;;;;1032052;28;20054;-30
2023/03/03 02:36:36;;;;;;;2.25;2.05;;;;;;;;;;1033229;28;20075;-28
2023/03/03 02:37:06;;;;;;;17.75;5.28;;;;;;;;;;1031571;28;20056;-30
2023/03/03 02:37:37;;;;;;;7.78;2.58;;;;;;;;;;1031539;28;20061;-29
2023/03/03 02:38:14;;;;;;;6.85;3.55;;;;;;;;;;1033276;28;20030;-30
2023/03/03 02:39:03;;;;;;;6.55;2.92;;;;;;;;;;1032313;28;20065;-30
2023/03/03 02:39:34;;;;;;;19.63;3.45;;;;;;;;;;1032860;28;20404;-31
2023/03/03 02:40:05;;;;;;;9.00;3.22;;;;;;;;;;1031394;28;20034;-30
2023/03/03 02:40:37;;;;;;;8.82;4.28;;;;;;;;;;1033585;28;20026;-30
2023/03/03 02:41:12;;;;;;;13.27;3.97;;;;;;;;;;1033003;28;20029;-29
2023/03/03 02:41:52;;;;;;;8.05;3.05;;;;;;;;;;1032677;28;20025;-29
2023/03/03 02:42:26;;;;;;;10.05;2.40;;;;;;;;;;1033760;28;20045;-30
2023/03/03 02:42:57;;;;;;;6.65;2.70;;;;;;;;;;1033361;28;20470;-30
2023/03/03 02:43:47;;;;;;;5.60;2.08;;;;;;;;;;1032299;28;20030;-28
2023/03/03 02:44:20;;;;;;;10.27;2.88;;;;;;;;;;1026115;28;20038;-29
2023/03/03 02:44:51;;;;;;;15.93;4.93;;;;;;;;;;1031429;28;20428;-28
2023/03/03 02:45:22;;;;;;;10.18;4.63;;;;;;;;;;1032138;28;20026;-30
2023/03/03 02:45:53;;;;;;;7.40;2.63;;;;;;;;;;1033004;28;20079;-28
2023/03/03 02:46:24;;;;;;;6.05;4.18;;;;;;;;;;1032572;28;20550;-29
2023/03/03 02:46:55;;;;;;;15.15;4.20;;;;;;;;;;1032277;28;20030;-28
2023/03/03 02:47:27;;;;;;;13.02;4.03;;;;;;;;;;1031128;28;20826;-29
2023/03/03 02:47:58;;;;;;;9.98;4.90;;;;;;;;;;1030206;28;20489;-29
2023/03/03 02:48:29;;;;;;;8.63;3.25;;;;;;;;;;1029536;28;20157;-29
2023/03/03 02:49:01;;;;;;;10.57;3.03;;;;;;;;;;1032033;28;20026;-29
2023/03/03 02:49:33;;;;;;;16.10;6.28;;;;;;;;;;1031585;28;20035;-28
2023/03/03 02:50:04;;;;;;;8.68;2.92;;;;;;;;;;1031826;28;20030;-29
2023/03/03 02:50:36;;;;;;;21.02;6.32;;;;;;;;;;1030262;28;20124;-29
2023/03/03 02:51:06;;;;;;;21.42;3.85;;;;;;;;;;1031511;28;20056;-29
2023/03/03 02:51:37;;;;;;;19.52;5.03;;;;;;;;;;1032920;28;21335;-29
2023/03/03 02:52:10;;;;;;;9.75;4.35;;;;;;;;;;1031654;28;20034;-28
2023/03/03 02:52:41;;;;;;;3.90;3.38;;;;;;;;;;1031300;28;20049;-29
2023/03/03 02:53:12;;;;;;;5.25;2.63;;;;;;;;;;1032058;28;20033;-29
2023/03/03 02:53:43;;;;;;;11.85;6.68;;;;;;;;;;1031153;28;20065;-30
2023/03/03 02:54:15;;;;;;;15.52;4.60;;;;;;;;;;1027888;28;21014;-29
2023/03/03 02:54:46;;;;;;;18.67;7.38;;;;;;;;;;1027490;28;20394;-29
2023/03/03 02:55:18;;;;;;;17.15;8.07;;;;;;;;;;1028379;28;20038;-29
2023/03/03 02:55:50;;;;;;;12.50;6.30;;;;;;;;;;1028293;28;20061;-29
2023/03/03 02:56:26;;;;;;;19.90;3.70;;;;;;;;;;1032225;28;20482;-29
2023/03/03 02:57:01;;;;;;;16.48;5.80;;;;;;;;;;1032038;28;20034;-29
2023/03/03 02:57:35;;;;;;;10.38;4.25;;;;;;;;;;1030932;28;20500;-29
2023/03/03 02:58:06;;;;;;;12.20;3.03;;;;;;;;;;1027057;28;20061;-29
2023/03/03 02:58:39;;;;;;;8.27;3.58;;;;;;;;;;1028403;28;20338;-28
2023/03/03 02:59:11;;;;;;;7.57;4.03;;;;;;;;;;1027301;28;20042;-28
2023/03/03 02:59:43;;;;;;;3.72;2.50;;;;;;;;;;1026376;28;20026;-30
2023/03/03 03:00:16;;;;;;;12.80;4.00;;;;;;;;;;1025942;28;20505;-31
2023/03/03 03:00:47;;;;;;;5.00;2.40;;;;;;;;;;1024193;28;20039;-29
2023/03/03 03:01:18;;;;;;;12.95;5.32;;;;;;;;;;1029819;28;20034;-29
2023/03/03 03:01:51;;;;;;;9.02;3.97;;;;;;;;;;1029321;28;20027;-30
2023/03/03 03:02:26;;;;;;;13.68;3.55;;;;;;;;;;1030339;28;20473;-29
2023/03/03 03:03:02;;;;;;;4.80;3.20;;;;;;;;;;1028996;28;20482;-29
2023/03/03 03:03:35;;;;;;;10.90;3.33;;;;;;;;;;1024856;28;20066;-29
2023/03/03 03:04:15;;;;;;;15.32;4.43;;;;;;;;;;1025075;28;20513;-29
2023/03/03 03:04:45;;;;;;;10.75;3.85;;;;;;;;;;1023563;28;20508;-28
2023/03/03 03:05:18;;;;;;;13.00;4.07;;;;;;;;;;1027510;28;20031;-28
2023/03/03 03:05:50;;;;;;;32.42;5.07;;;;;;;;;;1025656;28;20066;-29
2023/03/03 03:06:23;;;;;;;9.30;5.30;;;;;;;;;;1023035;28;20027;-28
2023/03/03 03:06:55;;;;;;;16.75;4.18;;;;;;;;;;1021227;28;21163;-28
2023/03/03 03:07:28;;;;;;;12.05;3.67;;;;;;;;;;1025164;28;20710;-28
2023/03/03 03:08:00;;;;;;;15.18;4.47;;;;;;;;;;1024642;28;20114;-28
2023/03/03 03:08:32;;;;;;;12.85;3.92;;;;;;;;;;1027251;28;20685;-28
2023/03/03 03:09:07;;;;;;;13.07;4.18;;;;;;;;;;1025032;28;20087;-28
2023/03/03 03:09:42;;;;;;;13.35;4.10;;;;;;;;;;1021987;28;20538;-28
2023/03/03 03:10:17;;;;;;;20.50;5.53;;;;;;;;;;1020328;28;20083;-27
2023/03/03 03:10:55;;;;;;;18.10;5.35;;;;;;;;;;1025845;28;20035;-30
2023/03/03 03:11:31;;;;;;;18.20;4.93;;;;;;;;;;1023288;28;20139;-28
2023/03/03 03:12:18;;;;;;;6.75;4.35;;;;;;;;;;1024982;28;20117;-29
2023/03/03 03:12:54;;;;;;;6.78;3.85;;;;;;;;;;1020115;29;20515;-29
2023/03/03 03:13:31;;;;;;;18.92;6.10;;;;;;;;;;1020890;29;20153;-29
2023/03/03 03:14:22;;;;;;;6.50;3.95;;;;;;;;;;1025438;28;20078;-29
2023/03/03 03:15:01;;;;;;;11.70;2.88;;;;;;;;;;1022328;28;20035;-29
2023/03/03 03:16:35;;;;;;;12.13;5.50;;;;;;;;;;1022567;28;20040;-28
2023/03/03 03:17:31;;;;;;;22.30;4.65;;;;;;;;;;1014908;29;20500;-29